Terminal Aerodrome Forecast
Issued by NWS

Current Version | Previous Version | Graphics & Text | Print | Product List | Glossary On
Versions: 1 2 3 4 5 6 7 8 9 10 11 12 13 14 15 16 17 18 19
000
FTUS41 KPBZ 162334
TAFHLG
TAF
KHLG 162334Z 1700/1724 27010G21KT P6SM VCSH OVC035
     FM170500 25011G21KT P6SM VCSH OVC025
     FM171700 27013G27KT P6SM BKN030=

USA.gov is the U.S. government's official web portal to all federal, state and local government web resources and services.